Weather reports worldwide

Advertisment
Xinzo De Limia, Spain (8050): temperature & dewpoint: 12.07.2019 07:00:00 - 18.07.2019 07:00:00 (CEST)Xinzo De Limia, Spain (8050): wind speed & gusts: 12.07.2019 07:00:00 - 18.07.2019 07:00:00 (CEST)Xinzo De Limia, Spain (8050): wind direction: 12.07.2019 07:00:00 - 18.07.2019 07:00:00 (CEST)Xinzo De Limia, Spain (8050): precipitation: 12.07.2019 07:00:00 - 18.07.2019 07:00:00 (CEST)
Date & Time tt [°C] td [°C] ff [km/h] ff [kn] fx [km/h] fx [kn] dd rr [mm]
18.07.2019 07:00:00 11,8 10,2 2 1 11 6 W 0,0
18.07.2019 06:00:00 12,0 10,4 4 2 13 7 NNW 0,0
18.07.2019 05:00:00 12,1 10,5 8 4 21 11 N 0,0
18.07.2019 04:00:00 12,8 11,0 9 5 14 7 NW 0,0
18.07.2019 03:00:00 13,1 11,0 8 5 15 8 NW 0,0
18.07.2019 02:00:00 13,9 11,6 9 5 18 10 NW -
18.07.2019 01:00:00 14,2 11,9 10 6 18 10 NW 0,0
18.07.2019 00:00:00 14,1 11,8 13 7 22 12 NNW 0,0
17.07.2019 23:00:00 14,5 11,7 9 5 20 11 NW 0,0
17.07.2019 22:00:00 16,4 12,0 8 5 23 12 NNW 0,0
17.07.2019 21:00:00 19,8 12,7 18 10 24 13 N 0,0
17.07.2019 20:00:00 23,2 13,4 15 8 27 14 NNW -
17.07.2019 19:00:00 24,4 13,9 15 8 31 17 N 0,0
17.07.2019 18:00:00 24,3 13,9 16 9 29 16 N 0,0
17.07.2019 17:00:00 24,4 14,2 16 9 28 15 NW 0,0
17.07.2019 16:00:00 23,7 14,7 14 8 23 12 NNW 0,0
17.07.2019 15:00:00 22,7 14,8 10 6 23 13 NW 0,0
17.07.2019 14:00:00 20,3 14,2 11 6 22 12 NW -
17.07.2019 13:00:00 19,5 14,3 9 5 18 10 NNW 0,0
17.07.2019 12:00:00 17,9 14,0 10 5 17 9 NNW 0,0
17.07.2019 11:00:00 16,5 13,6 10 6 16 9 N 0,0
17.07.2019 10:00:00 15,9 13,6 8 4 14 7 NNW 0,0
17.07.2019 09:00:00 15,2 13,3 7 4 14 7 NW 0,0
17.07.2019 08:00:00 14,9 13,1 8 4 16 8 NW -
17.07.2019 07:00:00 14,8 13,2 8 4 16 9 NW 0,0
17.07.2019 06:00:00 14,8 13,2 9 5 16 8 NW 0,0
17.07.2019 05:00:00 14,6 13,0 6 4 18 10 NW 0,0
17.07.2019 04:00:00 14,5 12,8 8 5 18 10 NNW 0,0
17.07.2019 03:00:00 14,2 12,5 3 1 5 3 NNW 0,0
17.07.2019 02:00:00 13,4 11,2 3 1 7 4 N -
17.07.2019 01:00:00 14,1 11,6 0 0 5 3 N 0,0
17.07.2019 00:00:00 15,3 12,1 0 0 9 5 N 0,0
16.07.2019 23:00:00 16,9 12,6 7 4 20 11 NW 0,0
16.07.2019 22:00:00 19,0 13,0 12 7 22 12 NNW 0,0
16.07.2019 21:00:00 21,7 13,9 15 8 27 14 NNW 0,0
16.07.2019 20:00:00 23,9 14,3 14 7 26 14 NNW -
16.07.2019 19:00:00 27,1 14,1 16 9 29 16 N 0,0
16.07.2019 18:00:00 28,7 14,9 16 9 25 13 N 0,0
16.07.2019 17:00:00 29,4 14,8 12 6 22 12 N 0,0
16.07.2019 16:00:00 27,6 13,6 11 6 24 13 N 0,0
16.07.2019 15:00:00 27,5 14,1 11 6 21 12 N 0,0
16.07.2019 14:00:00 25,8 14,6 13 7 23 12 N -
16.07.2019 13:00:00 23,8 13,4 11 6 17 9 NNE 0,0
16.07.2019 12:00:00 21,6 14,5 9 5 16 9 N 0,0
16.07.2019 11:00:00 18,8 14,5 10 5 16 9 NNE 0,0
16.07.2019 10:00:00 16,7 15,3 7 4 13 7 NE 0,0
16.07.2019 09:00:00 15,6 14,3 1 1 7 4 NNE 0,0
16.07.2019 08:00:00 14,8 13,6 0 0 4 2 NNE -
16.07.2019 07:00:00 14,8 13,6 2 1 5 3 NNW 0,0
16.07.2019 06:00:00 14,7 13,3 0 0 4 2 N 0,0
16.07.2019 05:00:00 14,6 13,2 1 0 5 3 SW 0,0
16.07.2019 04:00:00 14,1 12,5 1 1 4 2 W 0,0
16.07.2019 03:00:00 12,4 10,4 0 0 5 3 SW 0,0
16.07.2019 02:00:00 13,2 10,5 0 0 3 2 SSE -
16.07.2019 01:00:00 15,7 12,1 2 1 8 4 W 0,0
16.07.2019 00:00:00 17,6 13,4 5 3 14 7 WNW 0,0
15.07.2019 23:00:00 19,1 13,8 10 5 18 10 NNW 0,0
15.07.2019 22:00:00 21,6 12,7 9 5 20 11 NNW 0,0
15.07.2019 21:00:00 25,5 14,3 12 7 25 13 NNW 0,0
15.07.2019 20:00:00 27,5 14,1 14 7 24 13 NW -
15.07.2019 19:00:00 28,3 13,5 13 7 22 12 NW 0,0
15.07.2019 18:00:00 27,2 11,7 13 7 23 13 NNW 0,0
15.07.2019 17:00:00 28,7 14,1 13 7 24 13 NNW 0,0
15.07.2019 16:00:00 27,5 14,8 15 8 26 14 NNW 0,0
15.07.2019 15:00:00 27,0 15,7 14 8 24 13 N 0,0
15.07.2019 14:00:00 27,6 14,9 12 6 21 12 NNE -
15.07.2019 13:00:00 27,3 12,5 6 3 17 9 E 0,0
15.07.2019 12:00:00 23,9 18,3 4 2 14 8 ENE 0,0
15.07.2019 11:00:00 18,5 17,4 8 4 11 6 ENE 0,0
15.07.2019 10:00:00 15,2 14,0 1 1 5 3 ENE 0,1
15.07.2019 09:00:00 13,7 12,6 0 0 0 0 N 0,0
15.07.2019 08:00:00 11,5 10,3 1 0 6 3 N -
15.07.2019 07:00:00 11,3 10,0 0 0 6 4 S 0,0
15.07.2019 06:00:00 10,7 9,2 2 1 6 3 SSW 0,0
15.07.2019 05:00:00 11,6 10,0 2 1 5 3 ESE 0,0
15.07.2019 04:00:00 14,5 12,8 2 1 6 3 WSW 0,0
15.07.2019 03:00:00 - - - - - - - -
15.07.2019 02:00:00 - - - - - - - -
15.07.2019 01:00:00 - - - - - - - -
15.07.2019 00:00:00 - - - - - - - -
14.07.2019 23:00:00 - - - - - - - -
14.07.2019 22:00:00 23,4 14,7 7 4 18 10 WNW 0,0
14.07.2019 21:00:00 26,7 14,4 10 5 18 10 WNW 0,0
14.07.2019 20:00:00 27,1 14,1 13 7 24 13 NNW -
14.07.2019 19:00:00 28,8 14,6 13 7 25 14 NNW 0,0
14.07.2019 18:00:00 28,3 13,1 14 7 33 18 N 0,0
14.07.2019 17:00:00 28,4 14,2 15 8 26 14 N 0,0
14.07.2019 16:00:00 27,8 14,8 14 8 22 12 N 0,0
14.07.2019 15:00:00 27,2 15,3 13 7 20 11 N 0,0
14.07.2019 14:00:00 25,4 16,8 11 6 18 10 NNE -
14.07.2019 13:00:00 24,4 17,1 6 3 11 6 NE 0,0
14.07.2019 12:00:00 20,5 18,8 3 2 9 5 NW 0,0
14.07.2019 11:00:00 16,8 15,7 1 1 7 4 NNE 0,0
14.07.2019 10:00:00 14,7 13,6 1 1 7 4 ESE 0,0
14.07.2019 09:00:00 14,3 13,2 1 0 6 3 E 0,0
14.07.2019 08:00:00 14,1 13,0 0 0 3 2 WNW -
14.07.2019 07:00:00 14,1 13,0 1 0 4 2 ENE 0,0
14.07.2019 06:00:00 14,0 12,8 0 0 6 4 N 0,0
14.07.2019 05:00:00 14,2 13,1 4 2 8 4 WNW 0,0
14.07.2019 04:00:00 13,9 12,7 2 1 8 5 SW 0,0
14.07.2019 03:00:00 13,2 12,1 1 1 5 3 SW 0,0
14.07.2019 02:00:00 13,0 11,9 1 1 13 7 S -
14.07.2019 01:00:00 13,5 12,2 9 5 16 9 N 0,0
14.07.2019 00:00:00 13,3 11,7 5 3 8 5 SSW 0,0
13.07.2019 23:00:00 14,5 12,5 4 2 11 6 SW 0,0
13.07.2019 22:00:00 15,7 13,2 2 1 9 5 SW 0,0
13.07.2019 21:00:00 16,6 14,2 2 1 11 6 SSW 0,0
13.07.2019 20:00:00 16,5 14,5 4 2 23 12 NW -
13.07.2019 19:00:00 16,0 14,0 10 6 24 13 NE 0,4
13.07.2019 18:00:00 15,3 13,2 3 2 46 25 NE 0,1
13.07.2019 17:00:00 19,5 17,3 19 11 38 20 N 1,7
13.07.2019 16:00:00 23,6 17,6 8 4 19 10 W 0,0
13.07.2019 15:00:00 26,6 20,0 4 2 20 11 NW 0,0
13.07.2019 14:00:00 22,6 17,5 6 3 21 11 W -
13.07.2019 13:00:00 27,8 17,4 7 4 17 9 N 0,0
13.07.2019 12:00:00 27,3 18,6 9 5 18 10 NNE 0,0
13.07.2019 11:00:00 24,3 19,3 8 4 13 7 NNE 0,0
13.07.2019 10:00:00 19,6 18,1 2 1 11 6 E 0,0
13.07.2019 09:00:00 17,5 16,2 6 3 8 5 ENE 0,0
13.07.2019 08:00:00 15,9 14,4 1 1 4 2 E -
13.07.2019 07:00:00 16,2 14,5 1 1 5 3 NNW 0,0
13.07.2019 06:00:00 16,9 14,9 2 1 4 2 N 0,0
13.07.2019 05:00:00 18,0 15,8 0 0 6 4 NNE 0,0
13.07.2019 04:00:00 19,3 17,1 4 2 10 6 WSW 0,0
13.07.2019 03:00:00 19,3 16,7 5 3 9 5 ESE 0,0
13.07.2019 02:00:00 21,3 17,9 1 1 8 4 W -
13.07.2019 01:00:00 22,6 18,5 4 2 12 6 W 0,0
13.07.2019 00:00:00 23,3 18,8 3 1 15 8 SE 0,0
12.07.2019 23:00:00 24,8 18,7 3 2 13 7 WNW 0,0
12.07.2019 22:00:00 25,5 18,7 4 2 12 6 NE 0,0
12.07.2019 21:00:00 27,7 18,2 6 3 15 8 WNW 0,0
12.07.2019 20:00:00 29,9 17,4 5 3 18 10 SW -
12.07.2019 19:00:00 32,1 16,8 11 6 19 11 W 0,0
12.07.2019 18:00:00 32,9 17,1 11 6 21 11 NNW 0,0
12.07.2019 17:00:00 34,3 17,1 11 6 19 11 N 0,0
12.07.2019 16:00:00 35,5 16,3 9 5 21 11 E 0,0
12.07.2019 15:00:00 34,1 15,5 15 8 26 14 E 0,0
12.07.2019 14:00:00 33,6 15,6 11 6 21 12 ESE -
12.07.2019 13:00:00 33,1 16,0 12 6 24 13 ESE 0,0
12.07.2019 12:00:00 31,2 15,6 13 7 24 13 ESE 0,0
12.07.2019 11:00:00 25,9 17,0 1 1 7 4 NNW 0,0
12.07.2019 10:00:00 20,5 18,2 1 0 6 3 SSE 0,0
12.07.2019 09:00:00 15,6 14,3 2 1 6 3 S 0,0
12.07.2019 08:00:00 11,9 10,6 0 0 0 0 N -
12.07.2019 07:00:00 11,4 9,9 0 0 0 0 N 0,0

tt = temperature
td = dewpoint
ff = wind speed
fx = gusts
dd = wind direction
rr = precipitation

Next stations